createdAt,value
2019-06-08T00:00:45.861Z,973.06
2019-06-08T00:01:45.854Z,973.13
2019-06-08T00:02:45.884Z,973.08
2019-06-08T00:03:45.890Z,973.17
2019-06-08T00:04:46.115Z,973.15
2019-06-08T00:05:45.878Z,973.18
2019-06-08T00:06:45.980Z,973.22
2019-06-08T00:07:45.953Z,973.26
2019-06-08T00:08:46.030Z,973.27
2019-06-08T00:09:45.852Z,973.30
2019-06-08T00:10:46.026Z,973.32
2019-06-08T00:11:45.923Z,973.33
2019-06-08T00:12:45.939Z,973.34
2019-06-08T00:13:45.959Z,973.29
2019-06-08T00:14:46.005Z,973.36
2019-06-08T00:15:45.855Z,973.34
2019-06-08T00:16:45.864Z,973.42
2019-06-08T00:17:45.889Z,973.37
2019-06-08T00:18:45.885Z,973.35
2019-06-08T00:19:45.917Z,973.32
2019-06-08T00:20:45.902Z,973.37
2019-06-08T00:21:46.104Z,973.24
2019-06-08T00:22:45.911Z,973.37
2019-06-08T00:23:45.927Z,973.38
2019-06-08T00:24:46.008Z,973.44
2019-06-08T00:25:45.917Z,973.44
2019-06-08T00:26:45.839Z,973.48
2019-06-08T00:27:45.990Z,973.47
2019-06-08T00:28:45.853Z,973.53
2019-06-08T00:29:45.985Z,973.44
2019-06-08T00:30:45.903Z,973.50
2019-06-08T00:31:45.939Z,973.55
2019-06-08T00:32:46.211Z,973.52
2019-06-08T00:33:45.792Z,973.59
2019-06-08T00:34:45.940Z,973.57
2019-06-08T00:35:45.897Z,973.64
2019-06-08T00:36:45.889Z,973.63
2019-06-08T00:37:45.942Z,973.66
2019-06-08T00:38:46.056Z,973.68
2019-06-08T00:39:45.944Z,973.73
2019-06-08T00:40:45.828Z,973.78
2019-06-08T00:41:45.968Z,973.79
2019-06-08T00:42:46.097Z,973.78
2019-06-08T00:43:46.087Z,973.79
2019-06-08T00:44:45.913Z,973.75
2019-06-08T00:45:45.895Z,973.75
2019-06-08T00:46:45.964Z,973.78
2019-06-08T00:47:47.923Z,973.82
2019-06-08T00:48:45.916Z,973.89
2019-06-08T00:49:45.971Z,973.84
2019-06-08T00:50:45.944Z,973.86
2019-06-08T00:51:45.926Z,973.77
2019-06-08T00:52:45.951Z,973.96
2019-06-08T00:53:45.961Z,973.92
2019-06-08T00:54:46.139Z,973.94
2019-06-08T00:55:45.942Z,973.96
2019-06-08T00:56:45.936Z,973.94
2019-06-08T00:57:46.005Z,973.98
2019-06-08T00:58:45.880Z,974.06
2019-06-08T00:59:46.052Z,974.04
2019-06-08T01:00:48.855Z,974.03
2019-06-08T01:01:45.903Z,974.05
2019-06-08T01:02:45.929Z,974.18
2019-06-08T01:03:46.163Z,974.13
2019-06-08T01:04:45.902Z,974.09
2019-06-08T01:05:46.177Z,974.02
2019-06-08T01:06:45.847Z,974.04
2019-06-08T01:07:46.068Z,974.02
2019-06-08T01:08:45.969Z,974.05
2019-06-08T01:09:45.948Z,973.96
2019-06-08T01:10:45.965Z,974.08
2019-06-08T01:11:45.976Z,974.06
2019-06-08T01:12:45.985Z,973.93
2019-06-08T01:13:45.887Z,973.97
2019-06-08T01:14:45.996Z,974.10
2019-06-08T01:15:46.071Z,974.16
2019-06-08T01:16:46.243Z,974.17
2019-06-08T01:18:01.347Z,974.18
2019-06-08T01:18:45.827Z,974.23
2019-06-08T01:19:45.923Z,974.21
2019-06-08T01:20:46.016Z,974.29
2019-06-08T01:21:45.958Z,974.26
2019-06-08T01:22:45.971Z,974.25
2019-06-08T01:23:46.085Z,974.16
2019-06-08T01:24:45.966Z,974.44
2019-06-08T01:25:46.009Z,974.36
2019-06-08T01:26:46.987Z,974.48
2019-06-08T01:27:46.081Z,974.44
2019-06-08T01:28:45.995Z,974.47
2019-06-08T01:29:46.075Z,974.51
2019-06-08T01:30:45.926Z,974.51
2019-06-08T01:31:46.080Z,974.48
2019-06-08T01:32:46.044Z,974.45
2019-06-08T01:33:45.954Z,974.59
2019-06-08T01:34:46.079Z,974.50
2019-06-08T01:35:45.946Z,974.52
2019-06-08T01:36:46.008Z,974.34
2019-06-08T01:37:45.976Z,974.45
2019-06-08T01:38:46.178Z,974.42
2019-06-08T01:39:45.990Z,974.33
2019-06-08T01:40:47.326Z,974.44
2019-06-08T01:41:46.018Z,974.57
2019-06-08T01:42:45.996Z,974.40
2019-06-08T01:43:47.051Z,974.42
2019-06-08T01:44:45.945Z,974.45
2019-06-08T01:45:46.052Z,974.39
2019-06-08T01:46:46.075Z,974.41
2019-06-08T01:47:46.040Z,974.37
2019-06-08T01:48:45.954Z,974.39
2019-06-08T01:49:46.172Z,974.36
2019-06-08T01:50:46.064Z,974.27
2019-06-08T01:51:46.121Z,974.32
2019-06-08T01:52:45.999Z,974.36
2019-06-08T01:53:46.105Z,974.30
2019-06-08T01:54:46.099Z,974.44
2019-06-08T01:55:46.144Z,974.44
2019-06-08T01:56:46.089Z,974.51
2019-06-08T01:57:46.170Z,974.56
2019-06-08T01:58:46.076Z,974.60
2019-06-08T01:59:46.131Z,974.65
2019-06-08T02:00:46.162Z,974.59
2019-06-08T02:01:46.294Z,974.64
2019-06-08T02:02:46.226Z,974.64
2019-06-08T02:03:46.101Z,974.60
2019-06-08T02:04:46.188Z,974.55
2019-06-08T02:05:46.190Z,974.62
2019-06-08T02:06:46.252Z,974.59
2019-06-08T02:07:46.166Z,974.55
2019-06-08T02:08:46.096Z,974.63
2019-06-08T02:09:46.200Z,974.70
2019-06-08T02:10:46.279Z,974.70
2019-06-08T02:11:46.456Z,974.77
2019-06-08T02:12:46.372Z,974.77
2019-06-08T02:13:46.359Z,974.75
2019-06-08T02:14:46.332Z,974.88
2019-06-08T02:15:46.447Z,974.90
2019-06-08T02:16:46.463Z,974.84
2019-06-08T02:17:46.386Z,974.90
2019-06-08T02:18:50.808Z,974.86
2019-06-08T02:19:46.384Z,974.83
2019-06-08T02:20:46.457Z,974.83
2019-06-08T02:21:46.617Z,974.80
2019-06-08T02:22:46.526Z,974.87
2019-06-08T02:23:46.442Z,974.86
2019-06-08T02:24:46.349Z,974.88
2019-06-08T02:25:46.355Z,974.80
2019-06-08T02:26:46.439Z,974.81
2019-06-08T02:27:46.339Z,974.86
2019-06-08T02:28:46.336Z,974.74
2019-06-08T02:29:46.390Z,974.68
2019-06-08T02:30:46.397Z,974.75
2019-06-08T02:31:48.195Z,974.75
2019-06-08T02:32:46.405Z,974.74
2019-06-08T02:33:46.515Z,974.86
2019-06-08T02:34:46.405Z,974.75
2019-06-08T02:35:46.412Z,974.74
2019-06-08T02:36:46.526Z,974.87
2019-06-08T02:37:46.457Z,974.87
2019-06-08T02:38:46.425Z,974.85
2019-06-08T02:39:46.369Z,974.84
2019-06-08T02:40:46.363Z,974.87
2019-06-08T02:41:46.438Z,974.88
2019-06-08T02:42:46.392Z,974.88
2019-06-08T02:43:46.358Z,974.96
2019-06-08T02:44:46.502Z,974.90
2019-06-08T02:45:46.388Z,974.98
2019-06-08T02:46:46.452Z,974.96
2019-06-08T02:47:46.451Z,974.92
2019-06-08T02:49:02.287Z,974.97
2019-06-08T02:49:46.471Z,974.88
2019-06-08T02:50:46.546Z,974.99
2019-06-08T02:51:46.496Z,975.06
2019-06-08T02:52:46.453Z,975.05
2019-06-08T02:53:46.496Z,975.08
2019-06-08T02:54:46.510Z,975.04
2019-06-08T02:55:46.633Z,975.08
2019-06-08T02:56:46.406Z,975.09
2019-06-08T02:57:46.422Z,975.10
2019-06-08T02:58:46.396Z,975.05
2019-06-08T02:59:46.397Z,975.02
2019-06-08T03:00:46.389Z,975.10
2019-06-08T03:01:46.476Z,975.14
2019-06-08T03:02:46.428Z,975.15
2019-06-08T03:03:46.414Z,975.14
2019-06-08T03:04:46.447Z,975.10
2019-06-08T03:05:46.441Z,975.17
2019-06-08T03:06:46.603Z,975.25
2019-06-08T03:07:46.514Z,975.20
2019-06-08T03:08:46.488Z,975.18
2019-06-08T03:09:46.432Z,975.23
2019-06-08T03:10:46.448Z,975.21
2019-06-08T03:11:46.434Z,975.21
2019-06-08T03:12:46.518Z,975.24
2019-06-08T03:13:46.409Z,975.25
2019-06-08T03:14:46.439Z,975.17
2019-06-08T03:15:46.405Z,975.17
2019-06-08T03:16:46.528Z,975.24
2019-06-08T03:17:46.514Z,975.21
2019-06-08T03:18:46.473Z,975.17
2019-06-08T03:19:46.462Z,975.26
2019-06-08T03:20:46.474Z,975.21
2019-06-08T03:21:46.546Z,975.20
2019-06-08T03:22:46.466Z,975.28
2019-06-08T03:23:46.505Z,975.21
2019-06-08T03:24:46.511Z,975.26
2019-06-08T03:26:46.450Z,975.30
2019-06-08T03:27:46.471Z,975.29
2019-06-08T03:28:46.735Z,975.28
2019-06-08T03:29:46.431Z,975.33
2019-06-08T03:30:53.688Z,975.31
2019-06-08T03:31:54.988Z,975.31
2019-06-08T03:32:54.054Z,975.31
2019-06-08T03:33:53.755Z,975.34
2019-06-08T03:34:55.265Z,975.38
2019-06-08T03:35:55.425Z,975.49
2019-06-08T03:36:54.499Z,975.45
2019-06-08T03:37:46.475Z,975.46
2019-06-08T03:38:46.475Z,975.42
2019-06-08T03:39:46.754Z,975.47
2019-06-08T03:40:46.503Z,975.45
2019-06-08T03:41:46.491Z,975.43
2019-06-08T03:42:46.414Z,975.40
2019-06-08T03:43:46.439Z,975.47
2019-06-08T03:44:46.482Z,975.47
2019-06-08T03:45:46.458Z,975.40
2019-06-08T03:46:46.540Z,975.52
2019-06-08T03:47:46.437Z,975.40
2019-06-08T03:48:46.677Z,975.44
2019-06-08T03:49:54.832Z,975.45
2019-06-08T03:50:46.805Z,975.44
2019-06-08T03:51:48.869Z,975.50
2019-06-08T03:52:46.490Z,975.51
2019-06-08T03:53:47.405Z,975.54
2019-06-08T03:54:47.083Z,975.53
2019-06-08T03:55:47.255Z,975.59
2019-06-08T03:56:46.687Z,975.58
2019-06-08T03:57:46.431Z,975.58
2019-06-08T03:58:47.773Z,975.57
2019-06-08T03:59:47.728Z,975.58
2019-06-08T04:00:47.058Z,975.56
2019-06-08T04:01:46.680Z,975.55
2019-06-08T04:02:46.862Z,975.54
2019-06-08T04:03:46.552Z,975.55
2019-06-08T04:04:46.493Z,975.58
2019-06-08T04:05:46.708Z,975.56
2019-06-08T04:06:46.585Z,975.58
2019-06-08T04:07:46.620Z,975.55
2019-06-08T04:08:47.259Z,975.62
2019-06-08T04:09:46.523Z,975.65
2019-06-08T04:10:46.905Z,975.63
2019-06-08T04:11:46.900Z,975.63
2019-06-08T04:12:46.732Z,975.65
2019-06-08T04:13:47.081Z,975.59
2019-06-08T04:14:46.712Z,975.63
2019-06-08T04:15:47.070Z,975.53
2019-06-08T04:16:46.875Z,975.58
2019-06-08T04:17:46.481Z,975.69
2019-06-08T04:18:46.800Z,975.66
2019-06-08T04:20:08.968Z,975.63
2019-06-08T04:20:48.497Z,975.60
2019-06-08T04:21:46.588Z,975.60
2019-06-08T04:22:47.069Z,975.71
2019-06-08T04:23:47.246Z,975.71
2019-06-08T04:24:46.683Z,975.78
2019-06-08T04:25:47.731Z,975.75
2019-06-08T04:26:47.188Z,975.83
2019-06-08T04:27:47.094Z,975.79
2019-06-08T04:28:47.171Z,975.82
2019-06-08T04:29:46.512Z,975.66
2019-06-08T04:30:49.253Z,975.80
2019-06-08T04:31:46.545Z,975.83
2019-06-08T04:32:47.480Z,975.89
2019-06-08T04:33:46.787Z,975.90
2019-06-08T04:34:47.509Z,975.93
2019-06-08T04:35:47.154Z,975.98
2019-06-08T04:36:48.174Z,975.91
2019-06-08T04:37:47.084Z,975.96
2019-06-08T04:38:47.952Z,975.92
2019-06-08T04:39:46.986Z,975.86
2019-06-08T04:40:48.148Z,975.94
2019-06-08T04:41:47.182Z,976.03
2019-06-08T04:42:48.785Z,975.93
2019-06-08T04:43:47.241Z,976.00
2019-06-08T04:44:46.897Z,976.00
2019-06-08T04:45:48.066Z,975.95
2019-06-08T04:46:47.783Z,975.97
2019-06-08T04:47:47.836Z,975.99
2019-06-08T04:48:47.967Z,975.98
2019-06-08T04:49:47.155Z,976.02
2019-06-08T04:50:48.046Z,975.93
2019-06-08T04:51:47.666Z,976.01
2019-06-08T04:52:47.430Z,975.96
2019-06-08T04:53:47.212Z,975.93
2019-06-08T04:54:47.677Z,975.99
2019-06-08T04:55:47.198Z,975.97
2019-06-08T04:56:47.052Z,975.97
2019-06-08T04:57:48.717Z,976.01
2019-06-08T04:58:48.551Z,976.02
2019-06-08T04:59:47.980Z,975.98
2019-06-08T05:00:48.753Z,975.96
2019-06-08T05:01:47.148Z,975.98
2019-06-08T05:02:48.887Z,975.98
2019-06-08T05:03:47.744Z,975.96
2019-06-08T05:04:47.074Z,976.03
2019-06-08T05:05:47.556Z,976.01
2019-06-08T05:06:47.193Z,976.01
2019-06-08T05:07:48.061Z,976.02
2019-06-08T05:08:47.348Z,976.06
2019-06-08T05:09:47.146Z,976.17
2019-06-08T05:10:47.365Z,976.09
2019-06-08T05:11:47.445Z,976.13
2019-06-08T05:12:47.651Z,976.17
2019-06-08T05:13:47.667Z,976.11
2019-06-08T05:14:47.285Z,976.12
2019-06-08T05:15:47.474Z,976.13
2019-06-08T05:16:47.447Z,976.17
2019-06-08T05:17:47.506Z,976.19
2019-06-08T05:18:47.357Z,976.20
2019-06-08T05:19:47.431Z,976.27
2019-06-08T05:20:47.940Z,976.24
2019-06-08T05:21:47.487Z,976.31
2019-06-08T05:22:47.587Z,976.26
2019-06-08T05:23:51.159Z,976.30
2019-06-08T05:24:47.499Z,976.29
2019-06-08T05:25:47.256Z,976.25
2019-06-08T05:26:47.371Z,976.35
2019-06-08T05:27:47.347Z,976.35
2019-06-08T05:28:47.391Z,976.34
2019-06-08T05:29:47.249Z,976.38
2019-06-08T05:30:47.397Z,976.36
2019-06-08T05:31:47.621Z,976.41
2019-06-08T05:32:47.592Z,976.46
2019-06-08T05:33:47.559Z,976.45
2019-06-08T05:34:47.554Z,976.53
2019-06-08T05:35:47.580Z,976.43
2019-06-08T05:36:47.550Z,976.53
2019-06-08T05:37:47.758Z,976.57
2019-06-08T05:38:47.590Z,976.61
2019-06-08T05:39:47.760Z,976.62
2019-06-08T05:40:47.659Z,976.54
2019-06-08T05:41:47.592Z,976.57
2019-06-08T05:42:47.920Z,976.60
2019-06-08T05:43:47.682Z,976.60
2019-06-08T05:44:47.795Z,976.57
2019-06-08T05:45:48.323Z,976.66
2019-06-08T05:46:47.714Z,976.53
2019-06-08T05:47:47.831Z,976.54
2019-06-08T05:48:47.943Z,976.65
2019-06-08T05:49:47.899Z,976.64
2019-06-08T05:51:01.418Z,976.62
2019-06-08T05:51:47.841Z,976.65
2019-06-08T05:52:47.952Z,976.74
2019-06-08T05:53:47.829Z,976.63
2019-06-08T05:54:47.880Z,976.69
2019-06-08T05:55:47.924Z,976.72
2019-06-08T05:56:47.927Z,976.64
2019-06-08T05:57:46.612Z,976.61
2019-06-08T05:58:48.042Z,976.83
2019-06-08T05:59:46.645Z,976.67
2019-06-08T06:00:46.662Z,976.78
2019-06-08T06:01:46.834Z,976.77
2019-06-08T06:02:47.007Z,976.80
2019-06-08T06:03:46.631Z,976.75
2019-06-08T06:04:46.697Z,976.69
2019-06-08T06:05:46.605Z,976.75
2019-06-08T06:06:46.686Z,976.77
2019-06-08T06:07:46.796Z,976.69
2019-06-08T06:08:46.637Z,976.77
2019-06-08T06:09:46.971Z,976.77
2019-06-08T06:10:46.933Z,976.78
2019-06-08T06:11:46.893Z,976.79
2019-06-08T06:12:47.028Z,976.75
2019-06-08T06:13:47.431Z,976.85
2019-06-08T06:14:46.891Z,976.85
2019-06-08T06:15:47.228Z,976.87
2019-06-08T06:16:47.019Z,976.90
2019-06-08T06:17:48.031Z,976.90
2019-06-08T06:18:47.085Z,976.94
2019-06-08T06:19:47.310Z,976.90
2019-06-08T06:20:47.279Z,976.88
2019-06-08T06:21:47.084Z,976.98
2019-06-08T06:22:47.708Z,976.94
2019-06-08T06:23:47.272Z,976.93
2019-06-08T06:24:47.627Z,977.00
2019-06-08T06:25:47.537Z,976.99
2019-06-08T06:26:47.365Z,976.96
2019-06-08T06:27:47.571Z,976.95
2019-06-08T06:28:47.608Z,976.92
2019-06-08T06:29:47.856Z,977.04
2019-06-08T06:30:47.958Z,977.04
2019-06-08T06:31:47.802Z,977.07
2019-06-08T06:32:47.792Z,977.08
2019-06-08T06:33:47.938Z,977.17
2019-06-08T06:34:47.856Z,977.17
2019-06-08T06:35:47.841Z,977.13
2019-06-08T06:36:47.703Z,977.17
2019-06-08T06:37:47.765Z,977.21
2019-06-08T06:38:47.899Z,977.18
2019-06-08T06:39:48.043Z,977.24
2019-06-08T06:40:47.980Z,977.16
2019-06-08T06:41:47.825Z,977.20
2019-06-08T06:42:47.919Z,977.25
2019-06-08T06:43:48.010Z,977.23
2019-06-08T06:44:47.501Z,977.23
2019-06-08T06:45:47.946Z,977.18
2019-06-08T06:46:47.919Z,977.21
2019-06-08T06:47:48.329Z,977.16
2019-06-08T06:48:46.723Z,977.12
2019-06-08T06:49:46.637Z,977.17
2019-06-08T06:50:46.730Z,977.24
2019-06-08T06:51:46.754Z,977.19
2019-06-08T06:52:46.796Z,977.32
2019-06-08T06:53:46.693Z,977.30
2019-06-08T06:54:46.865Z,977.24
2019-06-08T06:55:46.927Z,977.27
2019-06-08T06:56:47.272Z,977.36
2019-06-08T06:57:47.236Z,977.36
2019-06-08T06:58:47.272Z,977.33
2019-06-08T06:59:47.196Z,977.25
2019-06-08T07:00:47.511Z,977.23
2019-06-08T07:01:47.529Z,977.27
2019-06-08T07:02:47.631Z,977.17
2019-06-08T07:03:47.777Z,977.34
2019-06-08T07:04:48.180Z,977.23
2019-06-08T07:05:47.850Z,977.22
2019-06-08T07:06:48.030Z,977.26
2019-06-08T07:07:46.767Z,977.32
2019-06-08T07:08:48.166Z,977.29
2019-06-08T07:09:46.781Z,977.30
2019-06-08T07:10:46.809Z,977.26
2019-06-08T07:11:46.965Z,977.27
2019-06-08T07:12:46.718Z,977.33
2019-06-08T07:13:46.706Z,977.32
2019-06-08T07:14:47.026Z,977.34
2019-06-08T07:15:47.327Z,977.33
2019-06-08T07:16:47.739Z,977.28
2019-06-08T07:17:47.921Z,977.32
2019-06-08T07:18:48.090Z,977.26
2019-06-08T07:19:46.868Z,977.31
2019-06-08T07:20:48.052Z,977.22
2019-06-08T07:21:48.241Z,977.26
2019-06-08T07:22:48.036Z,977.25
2019-06-08T07:23:49.087Z,977.24
2019-06-08T07:24:46.826Z,977.25
2019-06-08T07:25:46.820Z,977.21
2019-06-08T07:26:46.854Z,977.22
2019-06-08T07:27:46.854Z,977.15
2019-06-08T07:28:48.035Z,977.19
2019-06-08T07:29:47.221Z,977.18
2019-06-08T07:30:47.715Z,977.27
2019-06-08T07:31:48.221Z,977.24
2019-06-08T07:32:47.636Z,977.20
2019-06-08T07:33:48.152Z,977.15
2019-06-08T07:34:47.805Z,977.10
2019-06-08T07:35:47.014Z,977.22
2019-06-08T07:36:47.880Z,977.17
2019-06-08T07:37:47.290Z,977.12
2019-06-08T07:38:47.003Z,977.13
2019-06-08T07:39:47.152Z,977.10
2019-06-08T07:40:47.245Z,976.98
2019-06-08T07:41:47.395Z,977.11
2019-06-08T07:42:47.638Z,977.03
2019-06-08T07:43:47.985Z,977.01
2019-06-08T07:44:46.872Z,977.09
2019-06-08T07:45:47.795Z,976.96
2019-06-08T07:46:47.062Z,977.01
2019-06-08T07:47:47.909Z,977.01
2019-06-08T07:48:48.021Z,976.99
2019-06-08T07:49:47.084Z,977.01
2019-06-08T07:50:48.243Z,976.92
2019-06-08T07:51:58.771Z,976.96
2019-06-08T07:52:48.005Z,976.96
2019-06-08T07:53:47.071Z,976.95
2019-06-08T07:54:48.037Z,976.99
2019-06-08T07:55:47.275Z,976.99
2019-06-08T07:56:46.891Z,977.00
2019-06-08T07:57:48.571Z,976.96
2019-06-08T07:58:46.767Z,976.93
2019-06-08T07:59:47.585Z,976.96
2019-06-08T08:00:46.789Z,977.03
2019-06-08T08:01:47.742Z,976.91
2019-06-08T08:02:48.039Z,976.99
2019-06-08T08:03:47.914Z,977.02
2019-06-08T08:04:48.424Z,977.08
2019-06-08T08:05:48.160Z,977.00
2019-06-08T08:06:48.264Z,976.96
2019-06-08T08:07:48.288Z,976.90
2019-06-08T08:08:46.838Z,976.93
2019-06-08T08:09:46.850Z,976.98
2019-06-08T08:10:46.769Z,976.93
2019-06-08T08:11:46.945Z,976.90
2019-06-08T08:12:46.862Z,976.90
2019-06-08T08:13:46.871Z,976.84
2019-06-08T08:14:46.886Z,976.82
2019-06-08T08:15:46.808Z,976.90
2019-06-08T08:16:46.889Z,976.93
2019-06-08T08:17:46.752Z,976.86
2019-06-08T08:18:46.848Z,976.91
2019-06-08T08:19:46.854Z,976.84
2019-06-08T08:20:46.722Z,976.90
2019-06-08T08:21:50.131Z,976.72
2019-06-08T08:22:49.199Z,976.86
2019-06-08T08:23:47.877Z,976.96
2019-06-08T08:24:50.384Z,976.92
2019-06-08T08:25:47.404Z,976.85
2019-06-08T08:26:49.449Z,976.96
2019-06-08T08:27:47.930Z,976.89
2019-06-08T08:28:49.968Z,976.88
2019-06-08T08:29:47.573Z,976.84
2019-06-08T08:30:49.460Z,976.95
2019-06-08T08:31:50.293Z,976.80
2019-06-08T08:32:48.132Z,976.84
2019-06-08T08:33:49.859Z,976.93
2019-06-08T08:34:47.631Z,976.82
2019-06-08T08:35:48.201Z,976.84
2019-06-08T08:36:48.178Z,976.85
2019-06-08T08:37:47.373Z,976.89
2019-06-08T08:38:47.789Z,976.88
2019-06-08T08:39:47.451Z,976.85
2019-06-08T08:40:49.864Z,976.92
2019-06-08T08:41:50.233Z,976.89
2019-06-08T08:42:48.278Z,976.95
2019-06-08T08:43:48.521Z,976.88
2019-06-08T08:44:48.645Z,976.94
2019-06-08T08:45:47.758Z,976.89
2019-06-08T08:46:48.764Z,976.86
2019-06-08T08:47:48.491Z,976.94
2019-06-08T08:48:48.616Z,976.91
2019-06-08T08:49:47.963Z,976.85
2019-06-08T08:50:48.374Z,976.98
2019-06-08T08:51:47.710Z,976.95
2019-06-08T08:52:47.665Z,976.93
2019-06-08T08:53:48.597Z,976.90
2019-06-08T08:54:47.526Z,976.86
2019-06-08T08:55:48.092Z,976.87
2019-06-08T08:56:50.459Z,976.85
2019-06-08T08:57:48.465Z,976.90
2019-06-08T08:58:47.815Z,976.85
2019-06-08T08:59:50.273Z,976.85
2019-06-08T09:00:48.617Z,976.89
2019-06-08T09:01:48.275Z,976.88
2019-06-08T09:02:48.881Z,976.88
2019-06-08T09:03:48.238Z,976.85
2019-06-08T09:04:47.743Z,976.88
2019-06-08T09:05:48.286Z,976.95
2019-06-08T09:06:48.322Z,976.83
2019-06-08T09:07:48.264Z,976.86
2019-06-08T09:08:48.535Z,976.92
2019-06-08T09:09:48.188Z,976.99
2019-06-08T09:10:48.170Z,976.95
2019-06-08T09:11:48.384Z,976.88
2019-06-08T09:12:48.590Z,976.95
2019-06-08T09:13:48.796Z,976.94
2019-06-08T09:14:47.971Z,976.92
2019-06-08T09:15:47.993Z,976.96
2019-06-08T09:16:48.158Z,976.90
2019-06-08T09:17:48.268Z,976.83
2019-06-08T09:18:47.972Z,976.86
2019-06-08T09:19:48.072Z,976.88
2019-06-08T09:20:47.916Z,976.80
2019-06-08T09:21:48.139Z,976.86
2019-06-08T09:22:53.866Z,976.92
2019-06-08T09:23:48.515Z,976.92
2019-06-08T09:24:48.570Z,976.85
2019-06-08T09:25:48.219Z,976.85
2019-06-08T09:26:47.753Z,976.95
2019-06-08T09:27:48.225Z,976.97
2019-06-08T09:28:46.995Z,976.99
2019-06-08T09:29:48.125Z,976.90
2019-06-08T09:30:48.363Z,977.00
2019-06-08T09:31:48.985Z,976.92
2019-06-08T09:32:47.846Z,976.97
2019-06-08T09:33:53.265Z,977.03
2019-06-08T09:34:48.335Z,976.94
2019-06-08T09:35:47.926Z,976.99
2019-06-08T09:36:47.838Z,976.89
2019-06-08T09:37:48.502Z,976.94
2019-06-08T09:38:47.919Z,976.87
2019-06-08T09:39:48.298Z,976.87
2019-06-08T09:40:48.763Z,977.03
2019-06-08T09:41:47.976Z,976.87
2019-06-08T09:42:47.079Z,976.94
2019-06-08T09:43:48.667Z,976.93
2019-06-08T09:44:48.291Z,976.92
2019-06-08T09:45:48.343Z,976.95
2019-06-08T09:46:48.119Z,976.88
2019-06-08T09:47:47.839Z,976.89
2019-06-08T09:48:48.680Z,976.89
2019-06-08T09:49:47.996Z,976.93
2019-06-08T09:50:48.653Z,976.85
2019-06-08T09:51:48.685Z,976.76
2019-06-08T09:52:47.902Z,976.78
2019-06-08T09:53:47.698Z,976.91
2019-06-08T09:54:48.133Z,976.82
2019-06-08T09:55:48.112Z,976.86
2019-06-08T09:56:47.863Z,976.75
2019-06-08T09:57:48.506Z,976.84
2019-06-08T09:58:48.818Z,976.76
2019-06-08T09:59:48.209Z,976.78
2019-06-08T10:00:48.628Z,976.71
2019-06-08T10:01:47.000Z,976.86
2019-06-08T10:02:47.873Z,976.90
2019-06-08T10:03:48.249Z,976.81
2019-06-08T10:04:48.401Z,976.69
2019-06-08T10:05:48.483Z,976.68
2019-06-08T10:06:47.938Z,976.67
2019-06-08T10:07:48.641Z,976.60
2019-06-08T10:08:48.072Z,976.77
2019-06-08T10:09:47.365Z,976.83
2019-06-08T10:10:48.379Z,976.50
2019-06-08T10:11:47.019Z,976.73
2019-06-08T10:12:48.366Z,976.58
2019-06-08T10:13:47.794Z,976.65
2019-06-08T10:14:49.024Z,976.66
2019-06-08T10:15:51.187Z,976.74
2019-06-08T10:16:47.786Z,976.69
2019-06-08T10:17:47.642Z,976.62
2019-06-08T10:18:51.079Z,976.78
2019-06-08T10:19:47.674Z,976.65
2019-06-08T10:20:48.152Z,976.62
2019-06-08T10:21:48.161Z,976.61
2019-06-08T10:22:50.011Z,976.70
2019-06-08T10:23:48.387Z,976.82
2019-06-08T10:24:49.011Z,976.65
2019-06-08T10:25:48.218Z,976.73
2019-06-08T10:26:47.868Z,976.63
2019-06-08T10:27:47.035Z,976.70
2019-06-08T10:28:48.242Z,976.79
2019-06-08T10:29:48.287Z,976.63
2019-06-08T10:30:48.488Z,976.58
2019-06-08T10:31:48.362Z,976.63
2019-06-08T10:32:50.384Z,976.64
2019-06-08T10:33:48.227Z,976.65
2019-06-08T10:34:48.115Z,976.77
2019-06-08T10:35:48.051Z,976.70
2019-06-08T10:36:47.063Z,976.67
2019-06-08T10:37:47.833Z,976.67
2019-06-08T10:38:48.023Z,976.74
2019-06-08T10:39:47.900Z,976.66
2019-06-08T10:40:48.199Z,976.60
2019-06-08T10:41:51.264Z,976.64
2019-06-08T10:42:48.253Z,976.69
2019-06-08T10:43:48.216Z,976.75
2019-06-08T10:44:47.073Z,976.81
2019-06-08T10:45:48.245Z,976.69
2019-06-08T10:46:48.298Z,976.74
2019-06-08T10:47:47.934Z,976.68
2019-06-08T10:48:48.655Z,976.66
2019-06-08T10:49:48.973Z,976.72
2019-06-08T10:50:47.501Z,976.56
2019-06-08T10:51:48.741Z,976.62
2019-06-08T10:52:47.079Z,976.67
2019-06-08T10:53:52.618Z,976.74
2019-06-08T10:54:47.175Z,976.65
2019-06-08T10:55:48.189Z,976.54
2019-06-08T10:56:48.612Z,976.66
2019-06-08T10:57:47.753Z,976.57
2019-06-08T10:58:49.494Z,976.60
2019-06-08T10:59:48.600Z,976.57
2019-06-08T11:00:48.084Z,976.60
2019-06-08T11:01:47.136Z,976.60
2019-06-08T11:02:48.903Z,976.55
2019-06-08T11:03:48.958Z,976.57
2019-06-08T11:04:48.407Z,976.58
2019-06-08T11:05:48.321Z,976.51
2019-06-08T11:06:47.851Z,976.59
2019-06-08T11:07:47.994Z,976.51
2019-06-08T11:08:47.147Z,976.47
2019-06-08T11:09:48.162Z,976.55
2019-06-08T11:10:47.564Z,976.53
2019-06-08T11:11:48.074Z,976.52
2019-06-08T11:12:48.516Z,976.63
2019-06-08T11:13:50.019Z,976.55
2019-06-08T11:14:48.142Z,976.54
2019-06-08T11:15:48.100Z,976.50
2019-06-08T11:16:47.599Z,976.41
2019-06-08T11:17:47.143Z,976.47
2019-06-08T11:18:50.712Z,976.43
2019-06-08T11:19:47.952Z,976.46
2019-06-08T11:20:47.917Z,976.41
2019-06-08T11:21:48.154Z,976.36
2019-06-08T11:22:49.726Z,976.42
2019-06-08T11:24:04.721Z,976.45
2019-06-08T11:24:48.585Z,976.33
2019-06-08T11:25:48.839Z,976.44
2019-06-08T11:26:47.796Z,976.49
2019-06-08T11:27:47.531Z,976.38
2019-06-08T11:28:48.340Z,976.36
2019-06-08T11:29:47.707Z,976.39
2019-06-08T11:30:48.098Z,976.37
2019-06-08T11:31:47.941Z,976.31
2019-06-08T11:32:48.021Z,976.00
2019-06-08T11:33:49.003Z,976.42
2019-06-08T11:34:48.767Z,976.38
2019-06-08T11:35:47.149Z,976.42
2019-06-08T11:36:48.423Z,976.40
2019-06-08T11:37:48.798Z,976.37
2019-06-08T11:38:47.817Z,976.25
2019-06-08T11:39:49.125Z,976.22
2019-06-08T11:40:47.823Z,976.34
2019-06-08T11:41:48.460Z,976.24
2019-06-08T11:42:48.503Z,976.27
2019-06-08T11:43:47.317Z,976.22
2019-06-08T11:44:47.968Z,976.28
2019-06-08T11:45:48.075Z,976.29
2019-06-08T11:46:47.736Z,976.19
2019-06-08T11:47:48.450Z,976.27
2019-06-08T11:48:48.502Z,976.26
2019-06-08T11:49:47.962Z,976.25
2019-06-08T11:50:54.676Z,976.22
2019-06-08T11:51:47.825Z,976.22
2019-06-08T11:52:49.171Z,976.19
2019-06-08T11:53:49.936Z,976.29
2019-06-08T11:54:48.046Z,976.22
2019-06-08T11:55:54.551Z,976.12
2019-06-08T11:56:48.192Z,976.25
2019-06-08T11:57:48.757Z,976.31
2019-06-08T11:58:48.582Z,976.37
2019-06-08T11:59:48.509Z,976.22
2019-06-08T12:00:48.852Z,976.26
2019-06-08T12:01:50.248Z,976.18
2019-06-08T12:02:48.620Z,976.24
2019-06-08T12:03:48.355Z,976.23
2019-06-08T12:04:47.212Z,976.28
2019-06-08T12:05:47.768Z,976.23
2019-06-08T12:06:48.421Z,976.22
2019-06-08T12:07:48.048Z,976.21
2019-06-08T12:08:47.419Z,976.25
2019-06-08T12:09:49.985Z,976.21
2019-06-08T12:10:49.052Z,976.19
2019-06-08T12:11:48.047Z,976.15
2019-06-08T12:12:47.143Z,976.17
2019-06-08T12:13:47.482Z,976.15
2019-06-08T12:14:47.685Z,976.15
2019-06-08T12:15:48.814Z,976.17
2019-06-08T12:16:48.543Z,976.08
2019-06-08T12:17:49.960Z,976.08
2019-06-08T12:18:49.258Z,976.07
2019-06-08T12:19:47.669Z,976.16
2019-06-08T12:20:48.833Z,976.23
2019-06-08T12:21:49.623Z,976.07
2019-06-08T12:22:48.358Z,976.14
2019-06-08T12:23:47.324Z,976.08
2019-06-08T12:24:47.255Z,976.22
2019-06-08T12:25:47.337Z,976.15
2019-06-08T12:26:48.398Z,976.19
2019-06-08T12:27:48.861Z,976.16
2019-06-08T12:28:48.671Z,976.05
2019-06-08T12:29:50.024Z,976.03